Time;durP1;ratioP1;P1;durP2;ratioP2;P2;SDS_P1;SDS_P2;PMS_P1;PMS_P2;Temp;Humidity;BMP_temperature;BMP_pressure;BME280_temperature;BME280_humidity;BME280_pressure;Samples;Min_cycle;Max_cycle;Signal;HPM_P1;HPM_P2
2022/02/17 00:00:39;;;;;;;41.30;8.25;;;;;;;7.43;100.00;97210.06;5053949;28;20033;-88
2022/02/17 00:03:05;;;;;;;31.58;6.18;;;;;;;7.45;100.00;97219.41;5052916;28;20021;-87
2022/02/17 00:05:30;;;;;;;37.72;6.15;;;;;;;7.42;100.00;97225.16;5036196;28;20504;-87
2022/02/17 00:07:56;;;;;;;37.53;7.00;;;;;;;7.56;100.00;97223.09;5053196;28;20115;-88
2022/02/17 00:10:23;;;;;;;44.97;7.63;;;;;;;7.58;100.00;97219.19;5052877;28;20047;-86
2022/02/17 00:12:50;;;;;;;30.67;6.78;;;;;;;7.58;100.00;97208.56;5052934;28;20036;-87
2022/02/17 00:15:16;;;;;;;28.35;4.95;;;;;;;7.54;100.00;97202.13;5052141;28;20033;-87
2022/02/17 00:17:41;;;;;;;28.25;6.70;;;;;;;7.48;100.00;97196.91;5052787;28;20055;-87
2022/02/17 00:20:08;;;;;;;31.83;4.83;;;;;;;7.43;100.00;97186.19;5052100;28;20497;-88
2022/02/17 00:22:33;;;;;;;24.88;5.80;;;;;;;7.44;100.00;97174.50;5052309;28;20044;-87
2022/02/17 00:24:59;;;;;;;29.10;5.43;;;;;;;7.50;100.00;97170.94;5052386;28;20041;-86
2022/02/17 00:27:24;;;;;;;30.23;7.73;;;;;;;7.42;100.00;97208.44;5035526;28;20047;-87
2022/02/17 00:29:49;;;;;;;28.00;5.83;;;;;;;7.42;100.00;97193.31;5052050;28;20075;-88
2022/02/17 00:32:15;;;;;;;39.50;7.07;;;;;;;7.38;100.00;97176.25;5052325;28;20051;-87
2022/02/17 00:34:40;;;;;;;31.70;5.43;;;;;;;7.42;99.26;97142.09;5052598;28;20037;-86
2022/02/17 00:37:05;;;;;;;28.40;5.80;;;;;;;7.41;99.04;97149.25;5052323;28;20488;-87
2022/02/17 00:39:32;;;;;;;26.33;5.57;;;;;;;7.36;98.82;97162.41;5052027;28;20417;-87
2022/02/17 00:41:57;;;;;;;26.40;6.15;;;;;;;7.39;99.51;97172.53;5035749;28;20036;-85
2022/02/17 00:44:24;;;;;;;34.42;5.25;;;;;;;7.37;100.00;97177.28;5052244;28;20017;-87
2022/02/17 00:46:50;;;;;;;39.85;6.82;;;;;;;7.39;100.00;97189.28;5051610;28;20136;-86
2022/02/17 00:49:16;;;;;;;49.40;8.30;;;;;;;7.41;100.00;97202.31;5052121;28;20075;-87
2022/02/17 00:51:44;;;;;;;47.15;8.60;;;;;;;7.51;100.00;97212.38;5051999;28;20044;-87
2022/02/17 00:54:09;;;;;;;53.08;9.52;;;;;;;7.48;99.93;97197.72;5051676;28;20044;-86
2022/02/17 00:56:39;;;;;;;33.75;7.45;;;;;;;7.42;99.50;97176.59;5052143;28;20020;-85
2022/02/17 00:59:06;;;;;;;41.28;8.43;;;;;;;7.46;99.40;97136.09;5051502;28;20036;-88
2022/02/17 01:01:32;;;;;;;;;;;;;;;7.51;98.92;97164.59;5052484;28;20021;-86
2022/02/17 01:03:58;;;;;;;41.88;8.10;;;;;;;7.47;98.64;97168.75;5068622;28;19935;-85
2022/02/17 01:06:23;;;;;;;42.50;5.37;;;;;;;7.51;98.08;97149.47;5052231;28;20124;-87
2022/02/17 01:08:49;;;;;;;34.53;9.47;;;;;;;7.55;97.40;97155.94;5034645;28;20072;-86
2022/02/17 01:11:20;;;;;;;38.13;7.53;;;;;;;7.53;97.07;97146.59;5051859;28;20413;-87
2022/02/17 01:13:46;;;;;;;41.55;8.65;;;;;;;7.48;96.81;97146.47;5051607;28;20052;-85
2022/02/17 01:16:11;;;;;;;38.23;9.47;;;;;;;7.40;96.49;97152.94;5051994;28;20075;-85
2022/02/17 01:18:37;;;;;;;24.43;6.50;;;;;;;7.44;96.47;97154.09;5051802;28;20064;-86
2022/02/17 01:21:10;;;;;;;31.60;7.07;;;;;;;7.46;95.97;97145.91;5051476;28;20032;-86
2022/02/17 01:23:36;;;;;;;25.50;6.18;;;;;;;7.45;95.70;97139.78;5051762;28;20029;-86
2022/02/17 01:26:02;;;;;;;28.27;7.22;;;;;;;7.43;95.27;97146.38;5051412;28;20120;-87
2022/02/17 01:28:30;;;;;;;41.78;8.20;;;;;;;7.43;94.41;97123.28;5051886;28;20055;-86
2022/02/17 01:30:56;;;;;;;31.43;6.87;;;;;;;7.40;94.02;97111.28;5051498;28;20497;-87
2022/02/17 01:33:22;;;;;;;33.50;5.72;;;;;;;7.46;93.20;97093.63;5035296;28;20523;-87
2022/02/17 01:35:55;;;;;;;40.70;8.75;;;;;;;7.52;92.64;97079.44;5051669;28;20029;-86
2022/02/17 01:38:21;;;;;;;38.53;6.43;;;;;;;7.53;92.09;97067.75;5034890;28;20128;-88
2022/02/17 01:40:47;;;;;;;38.22;9.18;;;;;;;7.52;91.85;97052.88;5051798;28;20071;-87
2022/02/17 01:43:16;;;;;;;39.63;6.63;;;;;;;7.49;91.51;97048.06;5052014;28;20025;-86
2022/02/17 01:45:43;;;;;;;33.13;5.93;;;;;;;7.53;90.79;97041.22;5050293;28;20021;-87
2022/02/17 01:48:09;;;;;;;24.45;5.22;;;;;;;7.53;90.42;97038.56;5050644;28;20124;-86
2022/02/17 01:50:41;;;;;;;38.17;7.18;;;;;;;7.46;90.43;97045.03;5050352;28;20057;-85
2022/02/17 01:53:09;;;;;;;32.75;6.75;;;;;;;7.46;90.34;97032.56;5050614;28;20029;-86
2022/02/17 01:55:37;;;;;;;28.27;6.68;;;;;;;7.48;89.93;97038.47;5050559;28;20039;-85
2022/02/17 01:58:03;;;;;;;43.55;5.97;;;;;;;7.51;89.40;97027.38;5050109;28;20037;-85
2022/02/17 02:00:29;;;;;;;;;;;;;;;7.49;89.31;97013.56;5050772;28;20556;-86
2022/02/17 02:02:54;;;;;;;38.65;6.88;;;;;;;7.53;88.71;97001.41;5051972;28;20018;-86
2022/02/17 02:05:37;;;;;;;36.20;6.60;;;;;;;7.54;88.22;97013.66;5050572;28;20036;-85
2022/02/17 02:08:04;;;;;;;35.80;7.55;;;;;;;7.53;88.33;97027.16;5050423;28;20546;-85
2022/02/17 02:10:30;;;;;;;39.03;7.65;;;;;;;7.37;88.77;97010.09;5050238;28;20548;-87
2022/02/17 02:12:56;;;;;;;43.45;9.05;;;;;;;7.37;88.47;96996.81;5050756;28;20064;-85
2022/02/17 02:16:02;;;;;;;30.98;5.72;;;;;;;7.41;88.83;97037.78;5050353;28;20036;-86
2022/02/17 02:18:28;;;;;;;34.00;5.90;;;;;;;7.37;88.59;97020.69;5041910;28;20493;-88
2022/02/17 02:20:55;;;;;;;39.37;8.43;;;;;;;7.29;88.95;97023.72;5050284;28;20129;-85
2022/02/17 02:23:30;;;;;;;34.88;6.40;;;;;;;7.31;88.63;97005.72;5050693;28;20369;-84
2022/02/17 02:25:59;;;;;;;51.80;7.28;;;;;;;7.27;88.82;97044.38;5050516;28;20040;-86
2022/02/17 02:28:28;;;;;;;42.97;8.82;;;;;;;7.22;88.92;97025.69;5050658;28;20067;-85
2022/02/17 02:30:54;;;;;;;45.00;8.32;;;;;;;7.23;89.05;97022.00;5050150;28;20029;-86
2022/02/17 02:33:20;;;;;;;45.22;9.82;;;;;;;7.22;88.62;97039.75;5033461;28;20017;-86
2022/02/17 02:35:47;;;;;;;42.40;7.80;;;;;;;7.10;88.59;97031.81;5049823;28;20033;-86
2022/02/17 02:38:13;;;;;;;41.60;8.10;;;;;;;7.14;88.48;96974.59;5049939;28;20025;-84
2022/02/17 02:40:39;;;;;;;;;;;;;;;7.10;88.37;96999.97;5050052;28;20041;-85
2022/02/17 02:43:05;;;;;;;34.65;6.25;;;;;;;7.06;87.72;96977.59;5050161;28;19966;-84
2022/02/17 02:45:31;;;;;;;;;;;;;;;7.03;87.77;96975.41;5023320;28;20554;-85
2022/02/17 02:48:02;;;;;;;42.10;8.18;;;;;;;6.99;87.34;96966.31;5030089;28;19909;-84
2022/02/17 02:50:28;;;;;;;37.63;6.25;;;;;;;6.96;87.48;96978.19;5046328;28;20037;-85
2022/02/17 02:52:53;;;;;;;49.40;10.83;;;;;;;6.92;86.96;96977.03;5030136;28;20105;-86
2022/02/17 02:55:19;;;;;;;33.17;6.90;;;;;;;6.92;87.10;96966.41;5013348;28;20093;-85
2022/02/17 02:57:44;;;;;;;30.03;7.53;;;;;;;6.92;86.72;96965.63;5030241;28;20041;-85
2022/02/17 03:00:14;;;;;;;23.90;4.53;;;;;;;6.81;86.91;96950.50;5037862;28;20029;-89
2022/02/17 03:02:41;;;;;;;27.27;6.50;;;;;;;6.74;87.35;96975.31;5057719;28;20033;-83
2022/02/17 03:05:07;;;;;;;33.10;9.15;;;;;;;6.73;87.83;96999.38;5033498;28;20102;-86
2022/02/17 03:07:32;;;;;;;27.00;5.07;;;;;;;6.56;88.69;96999.25;5034638;28;20033;-84
2022/02/17 03:09:58;;;;;;;41.50;6.10;;;;;;;6.42;89.73;97019.06;5034327;28;20045;-85
2022/02/17 03:12:23;;;;;;;36.03;6.37;;;;;;;6.36;90.70;97054.38;5016875;28;20620;-86
2022/02/17 03:14:49;;;;;;;32.63;6.85;;;;;;;6.37;91.47;97070.06;5033129;28;20052;-84
2022/02/17 03:17:18;;;;;;;42.08;9.35;;;;;;;6.34;91.72;97066.03;5033217;28;20440;-86
2022/02/17 03:19:43;;;;;;;29.30;6.03;;;;;;;6.34;92.65;97055.44;5034349;28;20091;-87
2022/02/17 03:22:09;;;;;;;34.40;6.47;;;;;;;6.29;93.11;97086.25;5033484;28;20034;-86
2022/02/17 03:24:37;;;;;;;33.67;6.63;;;;;;;6.29;93.76;97126.81;5017010;28;20029;-85
2022/02/17 03:27:03;;;;;;;35.97;6.10;;;;;;;6.32;93.93;97115.78;5016462;28;20036;-86
2022/02/17 03:29:29;;;;;;;38.20;6.32;;;;;;;6.35;94.16;97119.81;5034035;28;20021;-86
2022/02/17 03:32:02;;;;;;;42.92;9.35;;;;;;;6.37;94.47;97138.13;5017706;28;20059;-85
2022/02/17 03:34:28;;;;;;;43.08;7.57;;;;;;;6.36;94.55;97117.97;5033154;28;20168;-84
2022/02/17 03:36:53;;;;;;;33.00;8.13;;;;;;;6.20;95.72;97122.84;5032873;28;20104;-85
2022/02/17 03:39:21;;;;;;;44.10;10.23;;;;;;;6.16;96.45;97134.94;5032662;28;20506;-85
2022/02/17 03:42:05;;;;;;;35.90;8.23;;;;;;;6.18;96.44;97150.59;5032844;28;20056;-85
2022/02/17 03:44:31;;;;;;;45.03;7.68;;;;;;;6.12;96.92;97152.28;5032513;28;20038;-85
2022/02/17 03:47:11;;;;;;;44.25;7.63;;;;;;;6.10;97.41;97173.69;5032566;28;20075;-86
2022/02/17 03:49:50;;;;;;;31.95;7.60;;;;;;;5.91;99.32;97172.03;5032326;28;20048;-86
2022/02/17 03:52:16;;;;;;;40.33;6.28;;;;;;;5.72;100.00;97208.28;5032681;28;20057;-86
2022/02/17 03:54:47;;;;;;;39.75;5.95;;;;;;;5.60;100.00;97210.03;5032598;28;20033;-86
2022/02/17 03:57:14;;;;;;;47.72;6.55;;;;;;;5.52;100.00;97216.38;5016168;28;20033;-84
2022/02/17 03:59:44;;;;;;;48.22;9.55;;;;;;;5.44;100.00;97243.91;5032110;28;20112;-85
2022/02/17 04:02:10;;;;;;;39.78;5.88;;;;;;;5.49;100.00;97249.38;5048734;28;20153;-86
2022/02/17 04:04:38;;;;;;;39.42;8.35;;;;;;;5.41;100.00;97288.53;5032470;28;20079;-86
2022/02/17 04:07:04;;;;;;;40.53;6.75;;;;;;;5.48;100.00;97295.38;5032134;28;20029;-87
2022/02/17 04:09:31;;;;;;;54.65;8.98;;;;;;;5.43;100.00;97278.50;5031497;28;20413;-85
2022/02/17 04:11:57;;;;;;;59.75;8.85;;;;;;;5.41;100.00;97257.59;5032256;28;20086;-85
2022/02/17 04:14:24;;;;;;;45.97;10.00;;;;;;;5.43;100.00;97300.50;5032401;28;20040;-86
2022/02/17 04:16:51;;;;;;;48.33;7.47;;;;;;;5.49;100.00;97291.69;5032161;28;20116;-85
2022/02/17 04:19:40;;;;;;;34.20;6.60;;;;;;;5.46;100.00;97260.38;5004112;28;20048;-85
2022/02/17 04:22:14;;;;;;;38.78;6.80;;;;;;;5.49;100.00;97285.59;5032492;28;20049;-85
2022/02/17 04:24:45;;;;;;;49.45;9.48;;;;;;;5.52;100.00;97297.59;5031929;28;20091;-86
2022/02/17 04:27:13;;;;;;;40.67;6.68;;;;;;;5.53;100.00;97278.06;5015688;28;20037;-85
2022/02/17 04:29:41;;;;;;;45.90;8.98;;;;;;;5.48;100.00;97270.78;5032045;28;20392;-87
2022/02/17 04:32:10;;;;;;;42.70;6.40;;;;;;;5.50;100.00;97285.41;5031791;28;20033;-86
2022/02/17 04:34:35;;;;;;;36.42;5.90;;;;;;;5.53;100.00;97241.03;5015368;28;20048;-85
2022/02/17 04:37:06;;;;;;;49.03;8.27;;;;;;;5.55;100.00;97239.78;5015466;28;20060;-86
2022/02/17 04:39:31;;;;;;;50.65;9.43;;;;;;;5.50;100.00;97244.88;5031317;28;20088;-86
2022/02/17 04:44:41;;;;;;;36.35;5.72;;;;;;;5.38;100.00;97226.25;5031817;28;20044;-85
2022/02/17 04:47:07;;;;;;;40.03;8.33;;;;;;;5.41;100.00;97225.84;5032493;28;20085;-85
2022/02/17 04:49:32;;;;;;;38.50;6.37;;;;;;;5.46;100.00;97223.34;5032619;28;20029;-85
2022/02/17 04:51:58;;;;;;;37.35;5.90;;;;;;;5.54;100.00;97226.75;5031643;28;20267;-86
2022/02/17 04:54:27;;;;;;;36.10;7.40;;;;;;;5.56;100.00;97206.97;5031153;28;20033;-86
2022/02/17 04:56:54;;;;;;;27.25;5.25;;;;;;;5.55;100.00;97208.03;5031115;28;20067;-85
2022/02/17 04:59:21;;;;;;;30.55;4.78;;;;;;;5.50;100.00;97178.72;5031016;28;20071;-85
2022/02/17 05:01:47;;;;;;;;;;;;;;;5.47;100.00;97234.75;5031487;28;20038;-86
2022/02/17 05:04:31;;;;;;;26.55;6.82;;;;;;;5.31;100.00;97256.44;5045233;28;20393;-87
2022/02/17 05:07:03;;;;;;;39.45;7.18;;;;;;;5.13;100.00;97244.75;5016268;28;20037;-85
2022/02/17 05:09:28;;;;;;;34.30;6.20;;;;;;;5.04;100.00;97265.34;5032113;28;20029;-86
2022/02/17 05:11:55;;;;;;;46.03;9.98;;;;;;;5.05;100.00;97284.66;5015719;28;20025;-85
2022/02/17 05:14:23;;;;;;;29.38;5.50;;;;;;;4.92;100.00;97280.25;5015755;28;20116;-85
2022/02/17 05:16:49;;;;;;;27.52;6.05;;;;;;;4.72;100.00;97282.97;5033082;28;20098;-85
2022/02/17 05:19:36;;;;;;;31.20;5.18;;;;;;;4.76;100.00;97294.75;5048625;28;20030;-84
2022/02/17 05:22:20;;;;;;;;;;;;;;;4.75;100.00;97331.94;5031048;28;20033;-86
2022/02/17 05:24:48;;;;;;;35.25;6.50;;;;;;;4.74;100.00;97319.78;5047639;28;19913;-86
2022/02/17 05:27:32;;;;;;;42.83;5.72;;;;;;;4.67;100.00;97325.06;5032198;28;20082;-86
2022/02/17 05:30:24;;;;;;;34.38;6.47;;;;;;;4.67;100.00;97337.47;5017815;28;20068;-85
2022/02/17 05:33:09;;;;;;;30.15;5.18;;;;;;;4.71;100.00;97346.63;5030896;28;20025;-84
2022/02/17 05:35:53;;;;;;;37.17;5.20;;;;;;;4.71;100.00;97338.69;5031361;28;20047;-85
2022/02/17 05:38:37;;;;;;;26.90;6.05;;;;;;;4.75;100.00;97353.09;5031202;28;20044;-87
2022/02/17 05:41:20;;;;;;;38.40;5.53;;;;;;;4.70;100.00;97371.41;5030955;28;20055;-85
2022/02/17 05:43:45;;;;;;;25.90;4.57;;;;;;;4.68;100.00;97373.44;5047249;28;20548;-86
2022/02/17 05:46:10;;;;;;;27.67;4.63;;;;;;;4.73;100.00;97400.06;5030192;28;20036;-86
2022/02/17 05:48:37;;;;;;;30.38;6.13;;;;;;;4.66;100.00;97376.31;5030394;28;20029;-85
2022/02/17 05:51:02;;;;;;;23.03;4.00;;;;;;;4.65;100.00;97367.56;5030807;28;20047;-86
2022/02/17 05:53:27;;;;;;;29.70;4.57;;;;;;;4.64;100.00;97389.72;5030495;28;20539;-85
2022/02/17 05:55:53;;;;;;;26.33;4.27;;;;;;;4.59;100.00;97371.03;5030249;28;20041;-86
2022/02/17 05:58:18;;;;;;;33.70;5.07;;;;;;;4.60;100.00;97370.00;5014162;28;20059;-86
2022/02/17 06:00:43;;;;;;;31.80;5.43;;;;;;;4.67;100.00;97398.25;5030391;28;20028;-85
2022/02/17 06:03:09;;;;;;;20.17;4.37;;;;;;;4.64;100.00;97410.06;5047701;28;20063;-86
2022/02/17 06:05:36;;;;;;;25.15;3.75;;;;;;;4.66;100.00;97394.81;5030867;28;20044;-85
2022/02/17 06:08:01;;;;;;;27.73;5.00;;;;;;;4.62;100.00;97418.19;5014230;28;20037;-85
2022/02/17 06:10:28;;;;;;;26.70;4.15;;;;;;;4.66;100.00;97429.16;5031459;28;20272;-87
2022/02/17 06:12:53;;;;;;;22.73;5.53;;;;;;;4.72;100.00;97451.28;5030386;28;20048;-87
2022/02/17 06:15:19;;;;;;;23.00;5.60;;;;;;;4.70;100.00;97446.22;5030348;28;20592;-85
2022/02/17 06:17:44;;;;;;;26.20;5.13;;;;;;;4.71;100.00;97436.47;5014176;28;20044;-88
2022/02/17 06:20:11;;;;;;;23.27;4.15;;;;;;;4.76;100.00;97468.38;5035638;28;20026;-85
2022/02/17 06:22:43;;;;;;;;;;;;;;;4.81;100.00;97479.13;5032160;28;20173;-87
2022/02/17 06:25:08;;;;;;;21.55;3.65;;;;;;;4.76;100.00;97471.81;5032353;28;20027;-86
2022/02/17 06:27:35;;;;;;;20.42;4.25;;;;;;;4.84;100.00;97515.72;5031425;28;20102;-86
2022/02/17 06:30:04;;;;;;;32.53;5.13;;;;;;;4.84;100.00;97528.94;5018917;28;20065;-86
2022/02/17 06:32:29;;;;;;;25.40;3.78;;;;;;;4.78;100.00;97530.59;5031652;28;20532;-86
2022/02/17 06:34:54;;;;;;;41.97;6.70;;;;;;;4.81;100.00;97553.94;5017415;28;20129;-86
2022/02/17 06:37:20;;;;;;;30.30;4.57;;;;;;;4.83;100.00;97551.13;5034782;28;20330;-86
2022/02/17 06:39:45;;;;;;;41.23;7.43;;;;;;;4.81;100.00;97574.28;5035203;28;20048;-86
2022/02/17 06:42:10;;;;;;;25.63;5.13;;;;;;;4.76;100.00;97582.03;5034258;28;20051;-86
2022/02/17 06:44:36;;;;;;;29.88;4.47;;;;;;;4.81;100.00;97604.19;5050581;28;20794;-85
2022/02/17 06:47:01;;;;;;;34.87;6.43;;;;;;;4.83;100.00;97609.28;5018520;28;20029;-86
2022/02/17 06:49:28;;;;;;;28.15;4.50;;;;;;;4.85;100.00;97638.97;5017702;28;20029;-86
2022/02/17 06:51:53;;;;;;;22.10;4.47;;;;;;;4.88;100.00;97648.31;5034187;28;20044;-86
2022/02/17 06:54:18;;;;;;;24.45;4.50;;;;;;;4.88;100.00;97635.09;5033575;28;20124;-85
2022/02/17 06:56:44;;;;;;;24.23;4.83;;;;;;;4.81;100.00;97649.09;5017051;28;20574;-84
2022/02/17 06:59:09;;;;;;;33.00;6.13;;;;;;;4.86;100.00;97662.53;5033673;28;20033;-85
2022/02/17 07:01:35;;;;;;;17.63;2.97;;;;;;;4.87;100.00;97663.38;5033493;28;20064;-84
2022/02/17 07:04:00;;;;;;;25.27;5.13;;;;;;;4.92;100.00;97686.56;5033327;28;20084;-85
2022/02/17 07:06:26;;;;;;;21.87;3.67;;;;;;;4.91;100.00;97703.41;5033532;28;20036;-85
2022/02/17 07:08:51;;;;;;;22.10;4.83;;;;;;;4.90;100.00;97705.25;5032979;28;20062;-86
2022/02/17 07:11:17;;;;;;;23.80;4.57;;;;;;;4.94;100.00;97722.34;5034151;28;20337;-85
2022/02/17 07:13:42;;;;;;;29.55;3.70;;;;;;;4.89;100.00;97714.19;5016974;28;20029;-85
2022/02/17 07:16:08;;;;;;;23.20;3.63;;;;;;;4.97;100.00;97734.34;5033571;28;20025;-85
2022/02/17 07:18:33;;;;;;;24.50;4.90;;;;;;;4.93;100.00;97731.28;5032995;28;20041;-85
2022/02/17 07:20:59;;;;;;;39.60;6.77;;;;;;;4.94;100.00;97737.38;5033494;28;20060;-84
2022/02/17 07:23:25;;;;;;;24.45;3.50;;;;;;;4.95;100.00;97755.69;5016760;28;20144;-84
2022/02/17 07:25:52;;;;;;;27.83;5.10;;;;;;;4.96;100.00;97754.66;5033238;28;20056;-84
2022/02/17 07:28:22;;;;;;;22.77;4.57;;;;;;;5.03;100.00;97774.03;5016901;28;20034;-85
2022/02/17 07:30:49;;;;;;;25.38;3.75;;;;;;;4.99;100.00;97766.69;5033916;28;20030;-85
2022/02/17 07:33:15;;;;;;;19.13;4.03;;;;;;;4.96;100.00;97786.41;5016884;28;20051;-85
2022/02/17 07:35:41;;;;;;;34.13;4.95;;;;;;;4.95;100.00;97811.22;5033602;28;20033;-86
2022/02/17 07:38:07;;;;;;;25.27;3.75;;;;;;;4.93;100.00;97815.88;5034373;28;20614;-87
2022/02/17 07:40:32;;;;;;;19.00;4.13;;;;;;;4.96;100.00;97828.69;5050284;28;20437;-86
2022/02/17 07:42:58;;;;;;;23.58;3.50;;;;;;;4.98;100.00;97818.75;5033878;28;20112;-85
2022/02/17 07:45:23;;;;;;;16.25;4.13;;;;;;;5.05;100.00;97838.09;5033299;28;20120;-86
2022/02/17 07:47:49;;;;;;;19.87;4.53;;;;;;;5.07;100.00;97853.78;5035175;28;20075;-85
2022/02/17 07:50:17;;;;;;;21.83;4.82;;;;;;;5.05;100.00;97853.16;5033801;28;20033;-87
2022/02/17 07:52:43;;;;;;;20.42;3.60;;;;;;;5.06;100.00;97860.91;5033929;28;20028;-86
2022/02/17 07:55:09;;;;;;;21.17;4.53;;;;;;;5.12;100.00;97867.22;5033635;28;20057;-86
2022/02/17 07:57:35;;;;;;;19.20;4.65;;;;;;;5.12;100.00;97871.69;5035340;28;20029;-88
2022/02/17 08:00:02;;;;;;;18.55;3.17;;;;;;;5.10;100.00;97889.59;5033588;28;20037;-86
2022/02/17 08:02:38;;;;;;;23.05;4.00;;;;;;;5.12;100.00;97896.31;5033398;28;20386;-84
2022/02/17 08:05:03;;;;;;;16.48;3.50;;;;;;;5.15;100.00;97887.16;5016448;28;20044;-83
2022/02/17 08:07:31;;;;;;;23.10;2.70;;;;;;;5.11;100.00;97912.38;5032655;28;20025;-88
2022/02/17 08:09:56;;;;;;;22.05;3.15;;;;;;;5.20;100.00;97913.84;5032313;28;20061;-85
2022/02/17 08:12:21;;;;;;;17.73;3.20;;;;;;;5.15;100.00;97906.50;5033907;28;20021;-86
2022/02/17 08:14:47;;;;;;;19.93;3.13;;;;;;;5.20;100.00;97919.13;5032741;28;20041;-86
2022/02/17 08:17:13;;;;;;;15.98;3.67;;;;;;;5.21;100.00;97931.34;5034087;28;20113;-85
2022/02/17 08:19:38;;;;;;;14.87;4.50;;;;;;;5.19;100.00;97931.53;5033135;28;20037;-85
2022/02/17 08:22:04;;;;;;;23.27;4.00;;;;;;;5.23;100.00;97943.34;5033287;28;20032;-85
2022/02/17 08:24:29;;;;;;;31.48;6.47;;;;;;;5.20;100.00;97942.94;5016510;28;20033;-86
2022/02/17 08:26:57;;;;;;;29.67;3.10;;;;;;;5.20;100.00;97956.16;5032869;28;20055;-84
2022/02/17 08:29:24;;;;;;;30.60;5.00;;;;;;;5.24;100.00;97975.91;5032038;28;20063;-85
2022/02/17 08:31:49;;;;;;;;;;;;;;;5.24;100.00;97991.78;5034066;28;20108;-86
2022/02/17 08:34:16;;;;;;;23.02;2.90;;;;;;;5.23;100.00;97990.16;5033748;28;19971;-85
2022/02/17 08:36:46;;;;;;;23.67;3.70;;;;;;;5.16;100.00;98010.47;5032429;28;20025;-85
2022/02/17 08:39:12;;;;;;;18.95;4.45;;;;;;;5.16;100.00;98047.50;5015326;28;20559;-85
2022/02/17 08:41:38;;;;;;;24.63;3.25;;;;;;;5.20;100.00;98048.75;5032418;28;20029;-87
2022/02/17 08:44:05;;;;;;;25.55;3.92;;;;;;;5.22;100.00;98065.22;5031906;28;20512;-83
2022/02/17 08:46:30;;;;;;;25.38;4.18;;;;;;;5.20;100.00;98075.19;5033574;28;20029;-85
2022/02/17 08:48:56;;;;;;;17.60;4.18;;;;;;;5.07;100.00;98076.72;5032589;28;20048;-86
2022/02/17 08:51:24;;;;;;;22.03;3.67;;;;;;;5.11;100.00;98100.16;5016133;28;20032;-85
2022/02/17 08:53:49;;;;;;;19.40;3.03;;;;;;;5.01;100.00;98109.25;5033159;28;20030;-85
2022/02/17 08:56:15;;;;;;;10.48;2.90;;;;;;;4.95;100.00;98123.22;5033325;28;20509;-85
2022/02/17 08:58:40;;;;;;;16.33;3.60;;;;;;;4.95;100.00;98125.84;5032125;28;20071;-88
2022/02/17 09:01:05;;;;;;;8.60;2.20;;;;;;;4.95;100.00;98147.00;5032336;28;20033;-86
2022/02/17 09:03:31;;;;;;;17.50;1.58;;;;;;;4.99;100.00;98164.13;5032957;28;20037;-87
2022/02/17 09:05:57;;;;;;;9.70;2.13;;;;;;;4.92;100.00;98163.25;5032857;28;20029;-87
2022/02/17 09:08:22;;;;;;;7.15;1.45;;;;;;;4.79;100.00;98160.47;5034180;28;20033;-85
2022/02/17 09:10:47;;;;;;;6.33;1.73;;;;;;;4.77;100.00;98181.00;5032779;28;20087;-86
2022/02/17 09:13:14;;;;;;;4.30;0.87;;;;;;;4.80;100.00;98189.38;5031874;28;20063;-85
2022/02/17 09:15:40;;;;;;;5.72;1.25;;;;;;;4.73;100.00;98180.56;5032006;28;20125;-84
2022/02/17 09:18:05;;;;;;;6.32;0.95;;;;;;;4.65;100.00;98188.59;5015885;28;20073;-85
2022/02/17 09:20:32;;;;;;;5.27;0.77;;;;;;;4.64;100.00;98206.28;5015134;28;20030;-87
2022/02/17 09:22:59;;;;;;;6.57;1.17;;;;;;;4.61;100.00;98204.03;5031453;28;20077;-86
2022/02/17 09:25:24;;;;;;;2.75;0.52;;;;;;;4.58;100.00;98204.38;5031626;28;20037;-86
2022/02/17 09:27:51;;;;;;;3.60;0.60;;;;;;;4.54;100.00;98213.69;5031419;28;20045;-84
2022/02/17 09:30:16;;;;;;;4.03;0.70;;;;;;;4.52;100.00;98209.59;5015009;28;20585;-86
2022/02/17 09:32:42;;;;;;;4.63;0.88;;;;;;;4.49;100.00;98216.06;5032092;28;20451;-86
2022/02/17 09:35:11;;;;;;;5.27;0.97;;;;;;;4.55;100.00;98235.66;5032776;28;20478;-86
2022/02/17 09:37:37;;;;;;;5.25;0.60;;;;;;;4.52;100.00;98255.34;5032115;28;20375;-84
2022/02/17 09:40:04;;;;;;;5.45;0.90;;;;;;;4.47;100.00;98260.34;5030730;28;20432;-84
2022/02/17 09:42:36;;;;;;;2.83;1.15;;;;;;;4.47;100.00;98270.09;5030816;28;20034;-84
2022/02/17 09:45:03;;;;;;;5.28;1.20;;;;;;;4.52;100.00;98287.06;5030842;28;20125;-85
2022/02/17 09:47:28;;;;;;;4.93;0.80;;;;;;;4.59;100.00;98310.94;5030704;28;20144;-84
2022/02/17 09:49:54;;;;;;;8.47;0.83;;;;;;;4.67;100.00;98328.50;5014310;28;20072;-83
2022/02/17 09:52:19;;;;;;;6.50;0.97;;;;;;;4.72;100.00;98339.34;5032196;28;20276;-84
2022/02/17 09:54:45;;;;;;;7.20;1.10;;;;;;;4.75;100.00;98357.47;5031173;28;20284;-84
2022/02/17 09:57:10;;;;;;;6.47;1.03;;;;;;;4.79;100.00;98364.03;5031681;28;20033;-87
2022/02/17 09:59:36;;;;;;;0.60;0.40;;;;;;;4.75;100.00;98368.88;5031910;28;20045;-84
2022/02/17 10:02:04;;;;;;;2.67;0.70;;;;;;;4.78;100.00;98383.56;5031987;28;20039;-84
2022/02/17 10:04:30;;;;;;;3.90;1.00;;;;;;;4.76;100.00;98385.56;5048232;28;20091;-85
2022/02/17 10:06:58;;;;;;;2.67;0.80;;;;;;;4.82;100.00;98403.31;5015834;28;20517;-85
2022/02/17 10:09:46;;;;;;;6.15;0.80;;;;;;;4.92;100.00;98430.31;5035845;28;20133;-84
2022/02/17 10:12:13;;;;;;;4.75;1.23;;;;;;;4.96;100.00;98436.03;5036799;28;20033;-83
2022/02/17 10:14:39;;;;;;;4.68;1.00;;;;;;;4.99;100.00;98444.44;5035709;28;20383;-85
2022/02/17 10:17:10;;;;;;;4.95;0.70;;;;;;;5.00;100.00;98451.38;5035116;28;20037;-83
2022/02/17 10:19:37;;;;;;;4.95;1.00;;;;;;;5.00;100.00;98463.78;5034935;28;20037;-84
2022/02/17 10:22:10;;;;;;;9.70;1.10;;;;;;;4.98;100.00;98479.00;5035022;28;20017;-84
2022/02/17 10:24:45;;;;;;;4.07;1.45;;;;;;;4.78;100.00;98471.59;5034883;28;20084;-84
2022/02/17 10:27:17;;;;;;;1.70;0.68;;;;;;;4.70;100.00;98490.19;5035043;28;20033;-86
2022/02/17 10:30:19;;;;;;;2.63;0.38;;;;;;;4.56;100.00;98501.53;5034336;28;20034;-85
2022/02/17 10:32:58;;;;;;;6.13;1.38;;;;;;;4.52;100.00;98502.88;5051396;28;20108;-85
2022/02/17 10:35:25;;;;;;;0.68;0.30;;;;;;;4.43;100.00;98521.47;5034665;28;20379;-85
2022/02/17 10:37:54;;;;;;;8.80;0.88;;;;;;;4.50;100.00;98529.50;5034279;28;20028;-89
2022/02/17 10:40:28;;;;;;;3.97;0.70;;;;;;;4.46;100.00;98532.69;5034238;28;20083;-87
2022/02/17 10:43:05;;;;;;;1.48;0.82;;;;;;;4.41;100.00;98543.78;5034508;28;20041;-88
2022/02/17 10:45:30;;;;;;;2.38;0.80;;;;;;;4.52;100.00;98561.88;5034276;28;20508;-86
2022/02/17 10:48:20;;;;;;;2.10;0.50;;;;;;;4.55;100.00;98569.44;5034738;28;20029;-85
2022/02/17 10:50:48;;;;;;;7.32;1.27;;;;;;;4.56;100.00;98565.78;5034540;28;20065;-88
2022/02/17 10:53:19;;;;;;;3.05;1.17;;;;;;;4.50;100.00;98574.44;5018440;28;20049;-86
2022/02/17 10:56:21;;;;;;;2.72;0.60;;;;;;;4.45;100.00;98563.59;5034288;28;20378;-85
2022/02/17 10:58:47;;;;;;;4.50;1.10;;;;;;;4.43;100.00;98586.72;5034467;28;20482;-85
2022/02/17 11:01:15;;;;;;;12.85;1.50;;;;;;;4.55;100.00;98595.06;5018187;28;20037;-85
2022/02/17 11:03:41;;;;;;;7.22;1.52;;;;;;;4.63;100.00;98602.91;5034316;28;20551;-87
2022/02/17 11:06:11;;;;;;;;;;;;;;;4.67;100.00;98614.78;5018008;28;20121;-84
2022/02/17 11:08:38;;;;;;;3.60;0.47;;;;;;;4.69;100.00;98623.34;5050614;28;19913;-85
2022/02/17 11:11:04;;;;;;;5.63;0.80;;;;;;;4.61;100.00;98611.03;5034524;28;20060;-86
2022/02/17 11:13:33;;;;;;;8.45;0.90;;;;;;;4.64;100.00;98625.72;5034163;28;20033;-89
2022/02/17 11:16:02;;;;;;;1.25;0.60;;;;;;;4.75;100.00;98629.75;5033952;28;20076;-86
2022/02/17 11:18:28;;;;;;;8.70;0.80;;;;;;;4.61;100.00;98629.53;5015991;28;20044;-88
2022/02/17 11:20:55;;;;;;;6.47;1.05;;;;;;;4.61;100.00;98629.53;5033906;28;20026;-86
2022/02/17 11:23:28;;;;;;;4.78;0.90;;;;;;;4.69;100.00;98654.25;5033754;28;20099;-87
2022/02/17 11:25:53;;;;;;;6.72;1.05;;;;;;;4.70;100.00;98650.59;5050147;28;20458;-86
2022/02/17 11:28:21;;;;;;;7.63;1.53;;;;;;;4.58;100.00;98643.06;5033758;28;20064;-87
2022/02/17 11:30:58;;;;;;;12.43;2.13;;;;;;;4.69;100.00;98676.22;5033037;28;20292;-89
2022/02/17 11:33:27;;;;;;;5.45;1.00;;;;;;;4.67;100.00;98685.31;5050060;28;20144;-86
2022/02/17 11:36:22;;;;;;;5.45;1.17;;;;;;;4.69;100.00;98681.50;5033436;28;20029;-86
2022/02/17 11:38:55;;;;;;;9.65;1.85;;;;;;;4.61;100.00;98671.81;5029639;28;20208;-86